<?xml version="1.0" encoding="UTF-8" standalone="no" ?>
<gpx xmlns="http://www.topografix.com/GPX/1/1" xmlns:xsi="http://www.w3.org/2001/XMLSchema-instance" xsi:schemaLocation="http://www.topografix.com/GPX/1/1 http://www.topografix.com/GPX/1/1/gpx.xsd" version="1.1" creator="VisuGPX - https://www.visugpx.com">
  <metadata>
    <name>10737787-Barrages du Verdon</name>
  </metadata>
  <trk>
    <name><![CDATA[10737787-Barrages du Verdon]]></name>
    <trkseg>
      <trkpt lat="43.62732" lon="6.22418">
        <ele>502</ele>
        <time>2019-11-23T18:22:58Z</time>
      </trkpt>
      <trkpt lat="43.63042" lon="6.22092">
        <ele>525</ele>
        <time>2019-11-23T18:24:07Z</time>
      </trkpt>
      <trkpt lat="43.63111" lon="6.21989">
        <ele>530</ele>
        <time>2019-11-23T18:24:25Z</time>
      </trkpt>
      <trkpt lat="43.63272" lon="6.21603">
        <ele>522</ele>
        <time>2019-11-23T18:25:23Z</time>
      </trkpt>
      <trkpt lat="43.63502" lon="6.20994">
        <ele>509</ele>
        <time>2019-11-23T18:26:51Z</time>
      </trkpt>
      <trkpt lat="43.63608" lon="6.20753">
        <ele>512</ele>
        <time>2019-11-23T18:27:28Z</time>
      </trkpt>
      <trkpt lat="43.63781" lon="6.20521">
        <ele>508</ele>
        <time>2019-11-23T18:28:10Z</time>
      </trkpt>
      <trkpt lat="43.64104" lon="6.19371">
        <ele>505</ele>
        <time>2019-11-23T18:30:49Z</time>
      </trkpt>
      <trkpt lat="43.64316" lon="6.18805">
        <ele>496</ele>
        <time>2019-11-23T18:32:11Z</time>
      </trkpt>
      <trkpt lat="43.64775" lon="6.17603">
        <ele>482</ele>
        <time>2019-11-23T18:35:06Z</time>
      </trkpt>
      <trkpt lat="43.65129" lon="6.17123">
        <ele>504</ele>
        <time>2019-11-23T18:36:35Z</time>
      </trkpt>
      <trkpt lat="43.65024" lon="6.1599">
        <ele>505</ele>
        <time>2019-11-23T18:39:02Z</time>
      </trkpt>
      <trkpt lat="43.65297" lon="6.14548">
        <ele>516</ele>
        <time>2019-11-23T18:42:14Z</time>
      </trkpt>
      <trkpt lat="43.65794" lon="6.13792">
        <ele>528</ele>
        <time>2019-11-23T18:44:25Z</time>
      </trkpt>
      <trkpt lat="43.65856" lon="6.13003">
        <ele>543</ele>
        <time>2019-11-23T18:46:07Z</time>
      </trkpt>
      <trkpt lat="43.6562" lon="6.12831">
        <ele>541</ele>
        <time>2019-11-23T18:46:55Z</time>
      </trkpt>
      <trkpt lat="43.65831" lon="6.12402">
        <ele>551</ele>
        <time>2019-11-23T18:48:01Z</time>
      </trkpt>
      <trkpt lat="43.65409" lon="6.10909">
        <ele>537</ele>
        <time>2019-11-23T18:51:28Z</time>
      </trkpt>
      <trkpt lat="43.65024" lon="6.09861">
        <ele>531</ele>
        <time>2019-11-23T18:53:59Z</time>
      </trkpt>
      <trkpt lat="43.64701" lon="6.08883">
        <ele>517</ele>
        <time>2019-11-23T18:56:17Z</time>
      </trkpt>
      <trkpt lat="43.64924" lon="6.08574">
        <ele>501</ele>
        <time>2019-11-23T18:57:14Z</time>
      </trkpt>
      <trkpt lat="43.64527" lon="6.08402">
        <ele>480</ele>
        <time>2019-11-23T18:58:28Z</time>
      </trkpt>
      <trkpt lat="43.64577" lon="6.06823">
        <ele>458</ele>
        <time>2019-11-23T19:01:51Z</time>
      </trkpt>
      <trkpt lat="43.64682" lon="6.06317">
        <ele>499</ele>
        <time>2019-11-23T19:02:59Z</time>
      </trkpt>
      <trkpt lat="43.6521" lon="6.05913">
        <ele>465</ele>
        <time>2019-11-23T19:04:46Z</time>
      </trkpt>
      <trkpt lat="43.6562" lon="6.05759">
        <ele>458</ele>
        <time>2019-11-23T19:06:02Z</time>
      </trkpt>
      <trkpt lat="43.6603" lon="6.05896">
        <ele>430</ele>
        <time>2019-11-23T19:07:17Z</time>
      </trkpt>
      <trkpt lat="43.66303" lon="6.05707">
        <ele>426</ele>
        <time>2019-11-23T19:08:11Z</time>
      </trkpt>
      <trkpt lat="43.66936" lon="6.0569">
        <ele>413</ele>
        <time>2019-11-23T19:10:04Z</time>
      </trkpt>
      <trkpt lat="43.67098" lon="6.05484">
        <ele>402</ele>
        <time>2019-11-23T19:10:43Z</time>
      </trkpt>
      <trkpt lat="43.6742" lon="6.05312">
        <ele>398</ele>
        <time>2019-11-23T19:11:45Z</time>
      </trkpt>
      <trkpt lat="43.68141" lon="6.04917">
        <ele>388</ele>
        <time>2019-11-23T19:14:03Z</time>
      </trkpt>
      <trkpt lat="43.68463" lon="6.04574">
        <ele>388</ele>
        <time>2019-11-23T19:15:15Z</time>
      </trkpt>
      <trkpt lat="43.68749" lon="6.04162">
        <ele>396</ele>
        <time>2019-11-23T19:16:28Z</time>
      </trkpt>
      <trkpt lat="43.68972" lon="6.04111">
        <ele>385</ele>
        <time>2019-11-23T19:17:09Z</time>
      </trkpt>
      <trkpt lat="43.69121" lon="6.0387">
        <ele>384</ele>
        <time>2019-11-23T19:17:49Z</time>
      </trkpt>
      <trkpt lat="43.69444" lon="6.03407">
        <ele>382</ele>
        <time>2019-11-23T19:19:12Z</time>
      </trkpt>
      <trkpt lat="43.70102" lon="6.03888">
        <ele>379</ele>
        <time>2019-11-23T19:21:25Z</time>
      </trkpt>
      <trkpt lat="43.703" lon="6.04197">
        <ele>374</ele>
        <time>2019-11-23T19:22:18Z</time>
      </trkpt>
      <trkpt lat="43.70859" lon="6.04111">
        <ele>402</ele>
        <time>2019-11-23T19:23:58Z</time>
      </trkpt>
      <trkpt lat="43.70958" lon="6.03956">
        <ele>413</ele>
        <time>2019-11-23T19:24:24Z</time>
      </trkpt>
      <trkpt lat="43.7107" lon="6.04265">
        <ele>449</ele>
        <time>2019-11-23T19:25:09Z</time>
      </trkpt>
      <trkpt lat="43.7133" lon="6.04711">
        <ele>476</ele>
        <time>2019-11-23T19:26:23Z</time>
      </trkpt>
      <trkpt lat="43.71243" lon="6.04986">
        <ele>492</ele>
        <time>2019-11-23T19:27:01Z</time>
      </trkpt>
      <trkpt lat="43.71367" lon="6.05244">
        <ele>484</ele>
        <time>2019-11-23T19:27:41Z</time>
      </trkpt>
      <trkpt lat="43.71516" lon="6.05347">
        <ele>475</ele>
        <time>2019-11-23T19:28:11Z</time>
      </trkpt>
      <trkpt lat="43.71789" lon="6.06016">
        <ele>484</ele>
        <time>2019-11-23T19:29:49Z</time>
      </trkpt>
      <trkpt lat="43.72472" lon="6.06857">
        <ele>469</ele>
        <time>2019-11-23T19:32:32Z</time>
      </trkpt>
      <trkpt lat="43.72" lon="6.07286">
        <ele>440</ele>
        <time>2019-11-23T19:34:13Z</time>
      </trkpt>
      <trkpt lat="43.71839" lon="6.08179">
        <ele>432</ele>
        <time>2019-11-23T19:36:11Z</time>
      </trkpt>
      <trkpt lat="43.71826" lon="6.08625">
        <ele>420</ele>
        <time>2019-11-23T19:37:08Z</time>
      </trkpt>
      <trkpt lat="43.71566" lon="6.08986">
        <ele>424</ele>
        <time>2019-11-23T19:38:14Z</time>
      </trkpt>
      <trkpt lat="43.71194" lon="6.08986">
        <ele>443</ele>
        <time>2019-11-23T19:39:20Z</time>
      </trkpt>
      <trkpt lat="43.71243" lon="6.08763">
        <ele>446</ele>
        <time>2019-11-23T19:39:50Z</time>
      </trkpt>
      <trkpt lat="43.71094" lon="6.0854">
        <ele>466</ele>
        <time>2019-11-23T19:40:29Z</time>
      </trkpt>
      <trkpt lat="43.70871" lon="6.08797">
        <ele>493</ele>
        <time>2019-11-23T19:41:21Z</time>
      </trkpt>
      <trkpt lat="43.7035" lon="6.09115">
        <ele>507</ele>
        <time>2019-11-23T19:43:02Z</time>
      </trkpt>
      <trkpt lat="43.70319" lon="6.09364">
        <ele>508</ele>
        <time>2019-11-23T19:43:35Z</time>
      </trkpt>
      <trkpt lat="43.70158" lon="6.09518">
        <ele>501</ele>
        <time>2019-11-23T19:44:09Z</time>
      </trkpt>
      <trkpt lat="43.7012" lon="6.09664">
        <ele>502</ele>
        <time>2019-11-23T19:44:29Z</time>
      </trkpt>
      <trkpt lat="43.7004" lon="6.09939">
        <ele>499</ele>
        <time>2019-11-23T19:45:07Z</time>
      </trkpt>
      <trkpt lat="43.69922" lon="6.09827">
        <ele>493</ele>
        <time>2019-11-23T19:45:33Z</time>
      </trkpt>
      <trkpt lat="43.69791" lon="6.0987">
        <ele>494</ele>
        <time>2019-11-23T19:45:57Z</time>
      </trkpt>
      <trkpt lat="43.6968" lon="6.0993">
        <ele>493</ele>
        <time>2019-11-23T19:46:18Z</time>
      </trkpt>
      <trkpt lat="43.69481" lon="6.09879">
        <ele>495</ele>
        <time>2019-11-23T19:46:54Z</time>
      </trkpt>
      <trkpt lat="43.69357" lon="6.10093">
        <ele>495</ele>
        <time>2019-11-23T19:47:29Z</time>
      </trkpt>
      <trkpt lat="43.69407" lon="6.1029">
        <ele>499</ele>
        <time>2019-11-23T19:47:56Z</time>
      </trkpt>
      <trkpt lat="43.69283" lon="6.10342">
        <ele>496</ele>
        <time>2019-11-23T19:48:19Z</time>
      </trkpt>
      <trkpt lat="43.69214" lon="6.10488">
        <ele>508</ele>
        <time>2019-11-23T19:48:42Z</time>
      </trkpt>
      <trkpt lat="43.69084" lon="6.10548">
        <ele>508</ele>
        <time>2019-11-23T19:49:06Z</time>
      </trkpt>
      <trkpt lat="43.68916" lon="6.1096">
        <ele>512</ele>
        <time>2019-11-23T19:50:07Z</time>
      </trkpt>
      <trkpt lat="43.69065" lon="6.11252">
        <ele>530</ele>
        <time>2019-11-23T19:50:53Z</time>
      </trkpt>
      <trkpt lat="43.69369" lon="6.11587">
        <ele>547</ele>
        <time>2019-11-23T19:52:02Z</time>
      </trkpt>
      <trkpt lat="43.69767" lon="6.1211">
        <ele>577</ele>
        <time>2019-11-23T19:53:40Z</time>
      </trkpt>
      <trkpt lat="43.69878" lon="6.12102">
        <ele>580</ele>
        <time>2019-11-23T19:54:00Z</time>
      </trkpt>
      <trkpt lat="43.69953" lon="6.12282">
        <ele>587</ele>
        <time>2019-11-23T19:54:26Z</time>
      </trkpt>
      <trkpt lat="43.70238" lon="6.12702">
        <ele>591</ele>
        <time>2019-11-23T19:55:40Z</time>
      </trkpt>
      <trkpt lat="43.70381" lon="6.13166">
        <ele>596</ele>
        <time>2019-11-23T19:56:45Z</time>
      </trkpt>
      <trkpt lat="43.70499" lon="6.13475">
        <ele>598</ele>
        <time>2019-11-23T19:57:30Z</time>
      </trkpt>
      <trkpt lat="43.70716" lon="6.13664">
        <ele>606</ele>
        <time>2019-11-23T19:58:16Z</time>
      </trkpt>
      <trkpt lat="43.71076" lon="6.13852">
        <ele>633</ele>
        <time>2019-11-23T19:59:24Z</time>
      </trkpt>
      <trkpt lat="43.71293" lon="6.14076">
        <ele>647</ele>
        <time>2019-11-23T20:00:12Z</time>
      </trkpt>
      <trkpt lat="43.71448" lon="6.14024">
        <ele>653</ele>
        <time>2019-11-23T20:00:41Z</time>
      </trkpt>
      <trkpt lat="43.71721" lon="6.13732">
        <ele>637</ele>
        <time>2019-11-23T20:01:42Z</time>
      </trkpt>
      <trkpt lat="43.71609" lon="6.13492">
        <ele>626</ele>
        <time>2019-11-23T20:02:19Z</time>
      </trkpt>
      <trkpt lat="43.71857" lon="6.13509">
        <ele>627</ele>
        <time>2019-11-23T20:03:03Z</time>
      </trkpt>
      <trkpt lat="43.71882" lon="6.13149">
        <ele>610</ele>
        <time>2019-11-23T20:03:50Z</time>
      </trkpt>
      <trkpt lat="43.72044" lon="6.13131">
        <ele>609</ele>
        <time>2019-11-23T20:04:19Z</time>
      </trkpt>
      <trkpt lat="43.72068" lon="6.12994">
        <ele>603</ele>
        <time>2019-11-23T20:04:37Z</time>
      </trkpt>
      <trkpt lat="43.72199" lon="6.12874">
        <ele>602</ele>
        <time>2019-11-23T20:05:05Z</time>
      </trkpt>
      <trkpt lat="43.72279" lon="6.12908">
        <ele>601</ele>
        <time>2019-11-23T20:05:20Z</time>
      </trkpt>
      <trkpt lat="43.72335" lon="6.13028">
        <ele>603</ele>
        <time>2019-11-23T20:05:38Z</time>
      </trkpt>
      <trkpt lat="43.72484" lon="6.12977">
        <ele>603</ele>
        <time>2019-11-23T20:06:05Z</time>
      </trkpt>
      <trkpt lat="43.72651" lon="6.12548">
        <ele>587</ele>
        <time>2019-11-23T20:07:08Z</time>
      </trkpt>
      <trkpt lat="43.72745" lon="6.12574">
        <ele>583</ele>
        <time>2019-11-23T20:07:25Z</time>
      </trkpt>
      <trkpt lat="43.72875" lon="6.12745">
        <ele>580</ele>
        <time>2019-11-23T20:07:57Z</time>
      </trkpt>
      <trkpt lat="43.73172" lon="6.12857">
        <ele>577</ele>
        <time>2019-11-23T20:08:52Z</time>
      </trkpt>
      <trkpt lat="43.73365" lon="6.129">
        <ele>557</ele>
        <time>2019-11-23T20:09:26Z</time>
      </trkpt>
      <trkpt lat="43.73514" lon="6.13209">
        <ele>560</ele>
        <time>2019-11-23T20:10:14Z</time>
      </trkpt>
      <trkpt lat="43.73582" lon="6.1332">
        <ele>530</ele>
        <time>2019-11-23T20:10:33Z</time>
      </trkpt>
      <trkpt lat="43.73545" lon="6.13501">
        <ele>529</ele>
        <time>2019-11-23T20:10:57Z</time>
      </trkpt>
      <trkpt lat="43.73458" lon="6.13595">
        <ele>540</ele>
        <time>2019-11-23T20:11:17Z</time>
      </trkpt>
      <trkpt lat="43.73576" lon="6.13698">
        <ele>512</ele>
        <time>2019-11-23T20:11:42Z</time>
      </trkpt>
      <trkpt lat="43.73607" lon="6.14076">
        <ele>510</ele>
        <time>2019-11-23T20:12:30Z</time>
      </trkpt>
      <trkpt lat="43.73359" lon="6.14556">
        <ele>494</ele>
        <time>2019-11-23T20:13:46Z</time>
      </trkpt>
      <trkpt lat="43.72968" lon="6.14642">
        <ele>502</ele>
        <time>2019-11-23T20:14:57Z</time>
      </trkpt>
      <trkpt lat="43.72875" lon="6.14634">
        <ele>519</ele>
        <time>2019-11-23T20:15:13Z</time>
      </trkpt>
      <trkpt lat="43.72844" lon="6.14814">
        <ele>515</ele>
        <time>2019-11-23T20:15:37Z</time>
      </trkpt>
      <trkpt lat="43.72745" lon="6.149">
        <ele>525</ele>
        <time>2019-11-23T20:15:58Z</time>
      </trkpt>
      <trkpt lat="43.72571" lon="6.15106">
        <ele>537</ele>
        <time>2019-11-23T20:16:39Z</time>
      </trkpt>
      <trkpt lat="43.72565" lon="6.15389">
        <ele>557</ele>
        <time>2019-11-23T20:17:15Z</time>
      </trkpt>
      <trkpt lat="43.72658" lon="6.15543">
        <ele>559</ele>
        <time>2019-11-23T20:17:41Z</time>
      </trkpt>
      <trkpt lat="43.72658" lon="6.15784">
        <ele>563</ele>
        <time>2019-11-23T20:18:12Z</time>
      </trkpt>
      <trkpt lat="43.729" lon="6.15912">
        <ele>554</ele>
        <time>2019-11-23T20:18:58Z</time>
      </trkpt>
      <trkpt lat="43.7316" lon="6.15972">
        <ele>542</ele>
        <time>2019-11-23T20:19:45Z</time>
      </trkpt>
      <trkpt lat="43.73253" lon="6.16136">
        <ele>535</ele>
        <time>2019-11-23T20:20:12Z</time>
      </trkpt>
      <trkpt lat="43.73203" lon="6.16282">
        <ele>527</ele>
        <time>2019-11-23T20:20:32Z</time>
      </trkpt>
      <trkpt lat="43.73005" lon="6.16548">
        <ele>516</ele>
        <time>2019-11-23T20:21:22Z</time>
      </trkpt>
      <trkpt lat="43.73061" lon="6.16814">
        <ele>512</ele>
        <time>2019-11-23T20:21:57Z</time>
      </trkpt>
      <trkpt lat="43.72955" lon="6.17045">
        <ele>509</ele>
        <time>2019-11-23T20:22:32Z</time>
      </trkpt>
      <trkpt lat="43.73005" lon="6.17312">
        <ele>515</ele>
        <time>2019-11-23T20:23:08Z</time>
      </trkpt>
      <trkpt lat="43.72937" lon="6.17457">
        <ele>509</ele>
        <time>2019-11-23T20:23:30Z</time>
      </trkpt>
      <trkpt lat="43.72527" lon="6.17698">
        <ele>524</ele>
        <time>2019-11-23T20:24:49Z</time>
      </trkpt>
      <trkpt lat="43.72267" lon="6.17869">
        <ele>530</ele>
        <time>2019-11-23T20:25:41Z</time>
      </trkpt>
      <trkpt lat="43.72118" lon="6.1805">
        <ele>524</ele>
        <time>2019-11-23T20:26:16Z</time>
      </trkpt>
      <trkpt lat="43.72093" lon="6.18204">
        <ele>523</ele>
        <time>2019-11-23T20:26:36Z</time>
      </trkpt>
      <trkpt lat="43.72298" lon="6.18882">
        <ele>504</ele>
        <time>2019-11-23T20:28:11Z</time>
      </trkpt>
      <trkpt lat="43.72192" lon="6.19011">
        <ele>522</ele>
        <time>2019-11-23T20:28:36Z</time>
      </trkpt>
      <trkpt lat="43.72068" lon="6.19011">
        <ele>525</ele>
        <time>2019-11-23T20:28:58Z</time>
      </trkpt>
      <trkpt lat="43.71826" lon="6.192">
        <ele>534</ele>
        <time>2019-11-23T20:29:47Z</time>
      </trkpt>
      <trkpt lat="43.71578" lon="6.1926">
        <ele>548</ele>
        <time>2019-11-23T20:30:32Z</time>
      </trkpt>
      <trkpt lat="43.71411" lon="6.19354">
        <ele>559</ele>
        <time>2019-11-23T20:31:04Z</time>
      </trkpt>
      <trkpt lat="43.71312" lon="6.19363">
        <ele>563</ele>
        <time>2019-11-23T20:31:22Z</time>
      </trkpt>
      <trkpt lat="43.71057" lon="6.19509">
        <ele>570</ele>
        <time>2019-11-23T20:32:11Z</time>
      </trkpt>
      <trkpt lat="43.70815" lon="6.19775">
        <ele>588</ele>
        <time>2019-11-23T20:33:06Z</time>
      </trkpt>
      <trkpt lat="43.70517" lon="6.20015">
        <ele>606</ele>
        <time>2019-11-23T20:34:07Z</time>
      </trkpt>
      <trkpt lat="43.70319" lon="6.19938">
        <ele>612</ele>
        <time>2019-11-23T20:34:44Z</time>
      </trkpt>
      <trkpt lat="43.70151" lon="6.19972">
        <ele>627</ele>
        <time>2019-11-23T20:35:14Z</time>
      </trkpt>
      <trkpt lat="43.70002" lon="6.19938">
        <ele>633</ele>
        <time>2019-11-23T20:35:41Z</time>
      </trkpt>
      <trkpt lat="43.69605" lon="6.20067">
        <ele>665</ele>
        <time>2019-11-23T20:36:53Z</time>
      </trkpt>
      <trkpt lat="43.69196" lon="6.2029">
        <ele>694</ele>
        <time>2019-11-23T20:38:12Z</time>
      </trkpt>
      <trkpt lat="43.68681" lon="6.21019">
        <ele>702</ele>
        <time>2019-11-23T20:40:23Z</time>
      </trkpt>
      <trkpt lat="43.68271" lon="6.21594">
        <ele>696</ele>
        <time>2019-11-23T20:42:07Z</time>
      </trkpt>
      <trkpt lat="43.67886" lon="6.22264">
        <ele>705</ele>
        <time>2019-11-23T20:43:57Z</time>
      </trkpt>
      <trkpt lat="43.67706" lon="6.2241">
        <ele>712</ele>
        <time>2019-11-23T20:44:34Z</time>
      </trkpt>
      <trkpt lat="43.67526" lon="6.22461">
        <ele>724</ele>
        <time>2019-11-23T20:45:07Z</time>
      </trkpt>
      <trkpt lat="43.6734" lon="6.22444">
        <ele>734</ele>
        <time>2019-11-23T20:45:40Z</time>
      </trkpt>
      <trkpt lat="43.67005" lon="6.2247">
        <ele>751</ele>
        <time>2019-11-23T20:46:39Z</time>
      </trkpt>
      <trkpt lat="43.66719" lon="6.2271">
        <ele>769</ele>
        <time>2019-11-23T20:47:39Z</time>
      </trkpt>
      <trkpt lat="43.66464" lon="6.22753">
        <ele>793</ele>
        <time>2019-11-23T20:48:25Z</time>
      </trkpt>
      <trkpt lat="43.66222" lon="6.22685">
        <ele>794</ele>
        <time>2019-11-23T20:49:09Z</time>
      </trkpt>
      <trkpt lat="43.6611" lon="6.22496">
        <ele>785</ele>
        <time>2019-11-23T20:49:40Z</time>
      </trkpt>
      <trkpt lat="43.66073" lon="6.22281">
        <ele>775</ele>
        <time>2019-11-23T20:50:09Z</time>
      </trkpt>
      <trkpt lat="43.65924" lon="6.2223">
        <ele>762</ele>
        <time>2019-11-23T20:50:36Z</time>
      </trkpt>
      <trkpt lat="43.65874" lon="6.22067">
        <ele>746</ele>
        <time>2019-11-23T20:50:59Z</time>
      </trkpt>
      <trkpt lat="43.65788" lon="6.22264">
        <ele>736</ele>
        <time>2019-11-23T20:51:28Z</time>
      </trkpt>
      <trkpt lat="43.6567" lon="6.22367">
        <ele>726</ele>
        <time>2019-11-23T20:51:53Z</time>
      </trkpt>
      <trkpt lat="43.65558" lon="6.22315">
        <ele>706</ele>
        <time>2019-11-23T20:52:14Z</time>
      </trkpt>
      <trkpt lat="43.65278" lon="6.22556">
        <ele>683</ele>
        <time>2019-11-23T20:53:13Z</time>
      </trkpt>
      <trkpt lat="43.65067" lon="6.22564">
        <ele>653</ele>
        <time>2019-11-23T20:53:50Z</time>
      </trkpt>
      <trkpt lat="43.64868" lon="6.2241">
        <ele>636</ele>
        <time>2019-11-23T20:54:31Z</time>
      </trkpt>
      <trkpt lat="43.64415" lon="6.22101">
        <ele>605</ele>
        <time>2019-11-23T20:56:01Z</time>
      </trkpt>
      <trkpt lat="43.64278" lon="6.22067">
        <ele>595</ele>
        <time>2019-11-23T20:56:26Z</time>
      </trkpt>
      <trkpt lat="43.64142" lon="6.22212">
        <ele>583</ele>
        <time>2019-11-23T20:56:56Z</time>
      </trkpt>
      <trkpt lat="43.63831" lon="6.22315">
        <ele>565</ele>
        <time>2019-11-23T20:57:53Z</time>
      </trkpt>
      <trkpt lat="43.63707" lon="6.2229">
        <ele>555</ele>
        <time>2019-11-23T20:58:15Z</time>
      </trkpt>
      <trkpt lat="43.63583" lon="6.22127">
        <ele>541</ele>
        <time>2019-11-23T20:58:46Z</time>
      </trkpt>
      <trkpt lat="43.63334" lon="6.22024">
        <ele>539</ele>
        <time>2019-11-23T20:59:32Z</time>
      </trkpt>
      <trkpt lat="43.63185" lon="6.21989">
        <ele>533</ele>
        <time>2019-11-23T20:59:59Z</time>
      </trkpt>
      <trkpt lat="43.63042" lon="6.22161">
        <ele>519</ele>
        <time>2019-11-23T21:00:33Z</time>
      </trkpt>
      <trkpt lat="43.63086" lon="6.22324">
        <ele>514</ele>
        <time>2019-11-23T21:00:55Z</time>
      </trkpt>
      <trkpt lat="43.62837" lon="6.22599">
        <ele>510</ele>
        <time>2019-11-23T21:01:52Z</time>
      </trkpt>
    </trkseg>
  </trk>
</gpx>